Date,TemperatureHighF,TemperatureAvgF,TemperatureLowF,DewpointHighF,DewpointAvgF,DewpointLowF,HumidityHigh,HumidityAvg,HumidityLow,PressureMaxIn,PressureMinIn,WindSpeedMaxMPH,WindSpeedAvgMPH,GustSpeedMaxMPH,PrecipitationSumIn
2013-1-4,8,8,8,3,3,3,79,79,79,30.34,30.34,4,4,9,0.00
2013-1-6,17,16,14,9,8,8,76,72,70,30.43,30.38,6,5,12,0.00
2013-1-7,15,15,14,9,9,8,78,77,76,30.38,30.35,11,9,20,0.00
2013-1-10,43,26,20,25,18,15,83,74,48,30.61,30.30,6,4,9,0.00
2013-1-14,7,6,6,0,0,-1,73,73,73,30.48,30.47,3,3,6,0.00
2013-1-18,19,19,19,11,11,11,72,72,72,30.48,30.48,2,2,6,0.00
2013-2-1,8,5,4,-2,-5,-7,73,64,52,30.41,30.28,7,4,13,0.00
2013-2-2,17,10,5,5,1,-2,75,68,54,30.35,30.17,6,2,18,0.00
2013-2-3,19,14,10,8,6,3,78,70,55,30.26,30.14,13,4,24,0.00
2013-2-4,24,15,10,9,6,2,78,66,50,30.22,30.09,10,2,15,0.00
2013-2-5,33,21,9,25,14,2,82,74,66,30.29,29.92,14,5,22,0.00
2013-2-6,33,19,1,26,12,-4,82,75,61,30.36,30.16,8,2,15,0.00
2013-2-7,33,30,26,27,25,22,85,81,76,30.37,30.16,8,3,14,0.00
2013-2-8,32,24,13,22,15,7,85,69,52,30.57,30.37,6,3,58,0.00
2013-2-9,33,26,13,24,20,7,80,75,68,30.51,30.18,18,7,26,0.00
2013-2-10,39,34,29,35,30,23,89,83,78,30.19,29.50,17,5,26,0.00
2013-2-11,35,29,21,32,22,14,88,76,68,30.23,29.49,18,8,72,0.00
2013-2-12,36,27,18,23,18,11,82,70,57,30.26,30.02,16,6,24,0.00
2013-2-13,44,31,20,29,23,16,86,75,54,30.02,29.77,8,2,14,0.00
2013-2-14,37,32,20,31,24,7,86,73,57,30.31,29.75,15,6,23,0.00
2013-2-15,23,16,10,8,5,0,71,61,53,30.45,30.30,12,5,21,0.00
2013-2-16,23,12,5,7,2,-2,74,63,49,30.43,30.35,8,3,13,0.00
2013-2-17,36,19,1,18,8,-5,75,63,46,30.36,29.98,11,5,25,0.00
2013-2-18,46,31,16,31,22,9,79,70,55,29.99,29.72,13,7,23,0.00
2013-2-19,16,11,8,9,3,-1,77,69,56,30.21,29.88,20,12,36,0.00
2013-2-20,3,3,3,-6,-6,-6,66,66,66,30.57,30.57,5,5,11,0.00
2013-3-4,34,31,29,21,20,18,69,63,58,30.24,30.17,7,4,15,0.00
2013-3-5,39,28,24,27,21,18,80,75,62,30.40,30.16,7,2,17,0.00
2013-3-6,40,26,14,21,17,8,83,68,46,30.55,30.39,11,5,19,0.00
2013-3-7,45,22,6,24,12,0,80,66,42,30.61,30.52,5,1,8,0.00
2013-3-8,49,32,17,30,22,12,82,66,48,30.59,30.38,10,4,15,0.00
2013-3-9,39,37,32,34,31,24,87,79,73,30.38,29.95,11,4,23,0.00
2013-3-10,39,36,32,35,32,29,89,87,83,30.05,29.89,10,3,22,0.00
2013-3-11,34,31,28,29,27,23,89,84,78,30.01,29.85,0,0,0,0.00
2013-3-12,35,27,21,23,19,15,81,71,56,30.29,30.01,8,0,19,0.00
2013-3-13,42,24,15,18,12,8,78,61,38,30.53,30.30,11,5,16,0.00
2013-3-14,45,27,21,29,18,12,77,70,53,30.50,30.35,6,2,12,0.00
2013-3-25,40,36,30,23,21,18,61,55,50,30.37,30.25,12,6,24,0.00
2013-3-26,45,33,21,25,20,14,77,60,39,30.48,30.37,7,3,46,0.00
2013-3-27,54,37,27,26,21,16,70,54,31,30.54,30.48,10,2,40,0.00
2013-3-28,50,34,20,25,20,15,80,59,35,30.56,30.48,7,1,27,0.00
2013-3-29,65,39,22,33,24,16,80,58,29,30.53,30.36,9,2,15,0.00
2013-3-30,52,43,37,41,32,-100,86,69,55,30.36,30.05,17,5,27,0.00
2013-3-31,49,36,30,36,26,14,88,70,30,30.20,30.00,15,6,30,0.00
2013-4-1,46,29,23,19,14,12,66,53,33,30.42,30.20,22,8,24,0.00
2013-4-2,50,30,19,20,15,12,77,54,30,30.55,30.42,15,4,23,0.00
2013-4-3,62,34,17,25,17,11,80,53,24,30.65,30.40,14,4,22,0.00
2013-4-4,64,43,33,35,26,19,59,51,31,30.41,30.22,12,6,30,0.00
2013-4-5,55,39,25,31,23,17,75,56,30,30.45,30.20,10,3,18,0.00
2013-4-6,61,46,38,46,33,20,84,61,42,30.21,29.71,15,8,28,0.00
2013-4-7,67,45,37,40,33,30,79,65,37,30.18,29.90,14,5,26,0.00
2013-4-8,67,47,41,46,37,34,81,69,46,30.20,29.89,7,4,13,0.00
2013-4-9,42,40,37,38,35,32,87,83,74,30.28,30.02,12,4,30,0.00
2013-4-10,37,34,32,33,30,28,86,83,74,30.33,30.03,13,4,22,0.00
2013-4-11,36,34,33,30,27,26,86,76,69,30.07,29.88,14,7,24,0.00
2013-5-30,83,74,63,71,64,59,87,73,55,29.93,29.82,24,9,24,0.00
2013-5-31,89,72,63,64,60,55,84,69,42,29.91,29.82,22,10,25,0.00
2013-6-1,76,65,56,59,55,50,89,72,51,30.03,29.80,17,4,18,0.00
2013-6-2,70,56,46,50,42,38,83,62,41,30.26,30.03,15,4,17,0.00
2013-6-3,75,60,43,49,44,38,87,60,36,30.30,30.18,9,1,11,0.00
2013-6-4,59,56,54,53,51,47,88,82,66,30.35,30.25,9,1,9,0.00
2013-6-5,60,56,52,56,52,48,89,87,82,30.31,30.14,4,0,7,0.00
2013-6-6,59,56,54,54,52,51,90,87,79,30.20,30.12,8,0,8,0.00
2013-6-7,79,62,52,54,51,49,90,70,41,30.23,30.13,9,2,11,0.00
2013-6-8,80,65,53,58,53,49,86,68,43,30.16,30.12,8,1,12,0.00
2013-6-9,70,62,57,63,56,50,88,79,65,30.16,30.00,6,1,9,0.00
2013-6-10,80,68,59,63,60,56,91,75,53,30.07,29.99,8,1,9,0.00
2013-6-11,86,71,56,68,62,53,90,74,53,30.12,30.01,11,1,11,0.00
2013-6-12,83,71,65,68,64,58,90,79,57,30.11,29.90,10,2,10,0.00
2013-6-13,85,71,60,59,56,54,88,63,39,30.27,30.02,10,3,11,0.00
2013-6-14,84,71,56,60,56,50,83,61,41,30.34,30.14,11,2,12,0.00
2013-6-15,85,72,62,69,62,56,88,73,56,30.22,30.02,11,2,13,0.00
2013-6-16,92,75,62,64,58,52,90,61,30,30.13,30.07,16,2,25,0.00
2013-6-17,90,75,62,62,57,54,79,56,33,30.17,30.08,18,2,18,0.00
2013-6-18,81,70,61,57,52,43,79,55,39,30.30,30.16,9,2,11,0.00
2013-6-19,87,70,54,61,54,46,75,57,42,30.34,30.22,10,3,13,0.00
2013-6-20,90,74,63,65,59,54,73,62,40,30.29,30.21,21,4,21,0.00
2013-6-22,89,80,67,74,69,62,90,69,57,30.18,30.05,14,6,18,0.00
2013-6-23,89,75,63,71,65,60,91,73,50,30.21,29.99,22,5,22,0.00
2013-6-24,83,73,68,71,66,63,88,78,62,30.17,30.05,18,4,18,0.00
2013-6-25,89,74,64,74,67,61,91,81,59,30.10,29.96,12,2,15,0.00
2013-6-26,90,79,70,74,70,66,91,76,56,29.99,29.90,11,3,12,0.00
2013-6-27,91,79,67,70,64,57,91,65,38,30.04,29.96,20,4,23,0.00
2013-6-28,81,72,63,65,60,54,79,67,55,29.99,29.89,17,4,17,0.00
2013-6-29,76,67,62,62,59,53,85,76,59,30.12,29.91,11,3,13,0.00
2013-6-30,87,70,57,56,51,48,74,55,27,30.28,30.12,9,3,12,0.00
2013-7-1,90,71,54,60,54,50,86,60,33,30.38,30.28,11,1,13,0.00
2013-7-2,86,72,58,61,56,53,86,61,39,30.34,30.26,7,1,9,0.00
2013-7-3,84,69,54,57,54,50,87,62,37,30.32,30.20,8,1,11,0.00
2013-7-4,90,74,60,66,60,55,84,63,42,30.26,30.15,10,3,16,0.00
2013-7-5,92,78,62,65,61,56,82,59,38,30.23,30.12,20,5,24,0.00
2013-7-6,95,79,70,69,64,61,74,61,43,30.19,30.09,22,7,22,0.00
2013-7-7,95,82,74,73,68,63,75,63,48,30.14,30.06,14,6,24,0.00
2013-7-8,94,81,74,74,70,66,77,68,51,30.16,30.07,20,3,21,0.00
2013-7-9,92,86,78,76,71,67,71,62,52,30.07,30.01,11,4,18,0.00
2013-7-10,89,76,64,69,57,-100,75,55,36,30.25,30.07,14,6,22,0.00
2013-7-11,92,73,58,62,58,54,87,63,35,30.33,30.24,8,1,11,0.00
2013-7-12,91,74,61,63,59,56,86,63,39,30.33,30.23,17,5,17,0.00
2013-7-13,86,75,67,64,60,56,75,61,46,30.33,30.23,16,5,16,0.00
2013-7-14,93,77,63,68,63,57,84,64,41,30.42,30.32,12,2,12,0.00
2013-7-15,95,80,67,73,68,62,87,69,49,30.47,30.38,10,1,12,0.00
2013-7-16,101,84,73,76,72,69,87,68,45,30.46,30.40,13,3,13,0.00
2013-7-17,101,86,76,75,71,69,83,64,38,30.49,30.35,9,2,11,0.00
2013-7-18,100,87,76,74,71,68,80,62,41,30.35,30.06,20,6,23,0.00
2013-7-19,95,83,71,73,67,59,79,58,38,30.08,29.97,15,5,17,0.00
2013-7-20,89,75,64,65,60,-100,84,63,42,30.15,30.07,9,1,10,0.00
2013-7-21,80,70,64,66,62,57,87,75,57,30.17,30.08,12,1,12,0.00
2013-7-22,91,73,60,74,64,57,90,77,56,30.10,29.87,15,3,18,0.00
2013-7-23,82,70,60,65,56,51,86,62,41,30.22,29.97,12,3,15,0.00
2013-7-24,76,62,52,56,52,48,87,72,44,30.31,30.21,7,0,8,0.00
2013-7-25,86,66,58,68,60,53,88,79,55,30.26,30.15,35,3,35,0.00
2013-7-26,78,69,60,64,58,50,90,71,47,30.21,30.10,22,6,22,0.00
2013-7-27,62,56,50,51,47,43,80,71,56,30.23,30.11,16,5,22,0.00
2013-7-28,73,60,49,54,50,44,85,70,50,30.27,30.11,13,4,15,0.00
2013-7-29,84,64,51,60,53,48,90,70,43,30.36,30.26,9,1,10,0.00
2013-7-30,83,69,58,65,59,53,86,71,52,30.35,30.26,9,2,12,0.00
2013-7-31,85,73,65,66,62,56,84,69,49,30.28,30.18,9,2,11,0.00
2013-8-1,87,70,56,61,56,52,87,64,38,30.25,30.07,9,1,13,0.00
2013-8-2,84,71,60,63,58,53,90,66,37,30.23,30.05,9,2,11,0.00
2013-8-3,83,68,54,59,53,48,86,63,38,30.37,30.22,12,2,13,0.00
2013-8-4,80,65,50,59,52,46,86,67,42,30.45,30.29,7,0,8,0.00
2013-8-5,74,65,57,64,59,52,88,80,70,30.30,30.05,11,2,13,0.00
2013-8-6,91,75,66,69,65,60,90,72,48,30.07,29.94,12,3,14,0.00
2013-8-7,84,69,60,62,59,53,87,71,45,30.22,29.98,11,3,14,0.00
2013-8-8,83,66,51,59,55,48,90,69,44,30.27,30.19,6,1,8,0.00
2013-8-9,86,71,60,62,56,-100,85,63,37,30.31,30.19,11,3,16,0.00
2013-8-10,81,67,55,57,54,51,86,65,41,30.39,30.30,11,2,11,0.00
2013-8-11,77,66,59,65,60,52,90,80,65,30.35,30.23,6,0,7,0.00
2013-8-21,91,80,72,73,68,64,84,69,55,30.20,30.10,10,4,14,0.00
2013-8-22,89,75,66,69,64,59,90,70,38,30.35,30.19,7,1,13,0.00
2013-8-23,90,72,60,68,62,56,89,73,45,30.38,30.30,10,2,13,0.00
2013-8-24,92,74,64,71,59,-100,79,63,51,30.41,30.27,100,8,21,0.00
2013-8-25,96,83,74,74,70,67,80,67,50,30.33,30.23,14,7,21,0.00
2013-8-26,98,84,74,77,71,64,78,66,51,30.27,30.12,14,5,16,0.00
2013-8-27,94,82,77,74,71,69,77,70,53,30.13,30.02,13,4,23,0.00
2013-9-3,82,61,47,58,51,44,90,73,42,30.33,30.22,9,1,9,0.00
2013-9-4,89,69,53,68,59,49,90,73,50,30.32,30.25,7,1,9,0.00
2013-9-5,86,70,62,67,61,56,87,74,53,30.46,30.33,9,1,10,0.00
2013-9-6,94,75,62,69,61,53,78,64,43,30.38,30.13,14,5,17,0.00
2013-9-7,98,79,70,74,63,-100,74,62,43,30.16,30.07,27,3,28,0.00
2013-9-8,81,73,66,67,61,54,79,68,56,30.28,30.14,9,3,13,0.00
2013-9-9,94,79,67,76,68,62,85,70,50,30.13,29.91,18,5,19,0.00
2013-9-12,74,64,56,56,51,44,82,64,40,30.39,30.20,19,3,19,0.00
2013-9-13,68,56,44,47,43,39,85,63,38,30.48,30.33,8,1,8,0.00
2013-9-14,77,57,42,51,42,-100,84,63,39,30.35,30.13,15,3,16,0.00
2013-9-15,70,60,54,56,52,46,87,75,57,30.47,30.11,14,2,14,0.00
2013-9-16,67,56,47,48,43,39,77,63,40,30.62,30.48,7,1,9,0.00
2013-9-17,67,55,44,56,48,39,86,77,60,30.52,30.22,7,1,11,0.00
2013-9-18,64,62,60,59,57,55,85,83,82,30.22,30.14,12,6,14,0.00
2013-9-19,87,78,68,71,68,64,89,74,57,29.98,29.88,16,4,20,0.00
2013-9-20,68,64,57,65,55,49,89,74,61,30.10,29.97,12,2,17,0.00
2013-9-28,77,62,51,62,51,-100,88,69,52,30.19,29.97,21,5,22,0.00
2013-9-29,72,58,47,53,48,44,90,72,46,30.25,30.13,16,4,17,0.00
2013-9-30,73,62,51,51,48,44,77,62,45,30.15,29.93,22,7,26,0.00
2013-10-1,65,57,51,47,46,45,79,68,51,30.20,30.12,0,0,2,0.00
2013-10-2,79,59,43,54,46,39,88,65,33,30.31,30.09,5,1,14,0.00
2013-10-3,71,64,57,63,58,48,89,81,57,30.14,30.02,7,1,10,0.00
2013-10-4,66,62,59,61,58,56,90,87,80,30.18,30.07,11,2,17,0.00
2013-10-5,58,55,52,46,44,43,72,68,65,29.98,29.98,3,1,8,0.00
2013-10-6,59,48,41,46,41,37,89,76,57,29.99,29.90,3,0,3,0.00
2013-10-7,71,52,42,50,44,39,90,76,47,30.25,29.98,9,2,13,0.00
2013-10-8,78,59,42,53,45,38,88,64,38,30.28,30.18,22,5,22,0.00
2013-10-10,73,58,44,54,47,39,86,67,44,30.33,30.18,11,2,11,0.00
2013-10-11,77,64,52,58,52,46,84,66,47,30.18,30.00,22,6,25,0.00
2013-10-12,70,59,43,55,42,-100,76,57,41,30.37,30.00,17,5,17,0.00
2013-10-13,61,47,37,41,36,33,86,69,42,30.62,30.39,3,0,8,0.00
2013-10-14,64,48,35,45,38,31,87,70,46,30.62,30.25,8,1,14,0.00
2013-10-15,62,52,47,53,46,41,87,78,63,30.24,29.93,17,5,21,0.00
2013-10-16,50,49,47,46,45,43,87,86,85,30.05,29.96,15,4,15,0.00
2013-11-27,29,19,10,12,7,1,71,58,46,30.54,30.35,11,3,11,0.00
2013-11-28,32,26,19,15,12,9,64,56,49,30.70,30.30,11,2,11,0.00
2013-11-29,35,24,12,19,14,6,77,64,50,30.75,30.45,15,4,20,0.00
2013-11-30,46,35,29,29,22,-100,72,61,50,30.44,30.21,17,5,30,0.00
2013-12-1,40,32,22,26,23,17,82,70,57,30.38,30.16,7,1,7,0.00
2013-12-2,43,33,23,32,26,18,85,77,63,30.15,29.88,14,2,15,0.00
2013-12-3,37,35,34,33,32,30,88,87,86,29.95,29.86,9,2,13,0.00
2013-12-6,12,6,1,1,-2,-6,71,67,59,30.80,30.51,8,3,9,0.00
2013-12-7,12,4,-3,-1,-7,-100,72,63,51,30.91,30.78,4,0,12,0.00
2013-12-8,17,12,8,9,5,-1,76,72,65,30.78,30.22,0,0,3,0.00
2013-12-9,13,6,-4,7,-2,-12,79,70,58,30.37,30.18,14,3,14,0.00
2013-12-10,14,8,-2,6,0,-9,80,68,56,30.41,30.04,12,3,12,0.00
2013-12-11,15,4,-3,10,-4,-11,79,67,53,30.73,30.41,9,2,9,0.00
2013-12-12,7,3,-1,-1,-5,-9,70,69,67,30.65,30.47,7,1,10,0.00
2013-12-13,26,20,15,12,10,5,75,63,56,30.43,30.33,12,3,14,0.00
2013-12-14,26,17,12,15,7,-100,74,68,63,30.43,30.22,9,2,15,0.00
2013-12-15,11,7,5,3,-2,-3,70,67,61,30.31,30.23,13,7,37,0.00
2013-12-26,15,14,11,9,8,5,78,76,74,30.35,30.32,4,1,5,0.00
2013-12-29,-3,-5,-6,-13,-15,-16,62,61,60,30.49,30.47,4,2,8,0.00
2013-12-30,6,-3,-12,-5,-12,-19,75,67,54,30.51,30.39,6,1,12,0.00
2013-12-31,9,2,-3,-1,-6,-13,77,69,61,30.58,30.38,6,1,57,0.00
2014-1-1,-1,-2,-4,-10,-11,-13,65,64,63,30.60,30.55,4,2,7,0.00